Latest Coastal Weather Observations for Townsville

IDQ60701

Issued at 10:05 pm EST Thursday 27 November 2014 (issued every 10 minutes, with the page automatically refreshed every 10 minutes)

About coastal observations | Map of coastal stations | Coastal observations for QLD | Marine services | Other Formats
Station Details ID: 032040 Name: TOWNSVILLE AERO Lat: -19.25 Lon: 146.77 Height: 4.34 m
Data from the previous 72 hours. | See also: Recent months at Townsville
Date/Time
EST
Temp

°C
Wind Pressure Rain
since 9am
mm
Weather Cloud Vis
km
Sea
Height
m
Swell
Dir
 
Speed
knots
Gust
knots
hPa Trend Height
m
Period
s
Dir
27/10:00pm 26.0 E 5 7 1012.7 - 0.0 - Partly cloudy 10 - - - -
27/09:30pm 26.3 E 7 9 1012.6 - 0.0 - Partly cloudy 10 - - - -
27/09:00pm 26.4 E 8 10 1012.6 - 0.0 - - 10 - - - -
27/08:30pm 26.7 ENE 8 10 1012.5 - 0.0 - Partly cloudy 10 - - - -
27/08:00pm 26.7 ENE 7 10 1012.3 - 0.0 - - 10 - - - -
27/07:30pm 26.7 ENE 9 13 1012.0 - 0.0 - - 10 - - - -
27/07:00pm 26.9 ENE 12 15 1011.8 - 0.0 - - 10 - - - -
27/06:30pm 27.3 NE 10 15 1011.4 - 0.0 - - 10 - - - -
27/06:00pm 27.7 ENE 10 14 1011.1 - 0.0 - - 10 - - - -
27/05:30pm 28.7 ENE 13 17 1010.9 - 0.0 - Mostly clear 10 - - - -
27/05:00pm 28.6 ENE 16 19 1010.3 - 0.0 - Mostly clear 10 - - - -
27/04:30pm 29.0 ENE 15 19 1010.2 - 0.0 - Mostly clear 10 - - - -
27/04:00pm 29.2 ENE 15 18 1010.4 - 0.0 - Mostly clear 10 - - - -
27/03:30pm 29.6 ENE 15 20 1010.6 - 0.0 - Mostly clear 10 - - - -
27/03:00pm 28.8 NE 17 20 1010.5 - 0.0 - Mostly clear 10 - - - -
27/02:30pm 29.9 NE 15 19 1010.8 - 0.0 - Mostly clear 10 - - - -
27/02:00pm 30.7 ENE 16 19 1011.0 - 0.0 - Mostly clear 10 - - - -
27/01:30pm 31.2 ENE 16 20 1011.3 - 0.0 - Mostly clear 10 - - - -
27/01:00pm 30.8 ENE 16 20 1011.5 - 0.0 - Mostly clear 10 - - - -
27/12:30pm 30.1 ENE 16 20 1011.6 - 0.0 - Mostly clear 10 - - - -
27/12:00pm 30.3 ENE 17 21 1011.8 F 0.0 Haze Partly cloudy 35 - - - -
27/11:30am 30.8 NE 16 19 1012.3 - 0.0 - Mostly clear 10 - - - -
27/11:00am 30.4 ENE 15 18 1012.6 - 0.0 - Mostly clear 10 - - - -
27/10:30am 29.4 ENE 14 18 1013.1 - 0.0 - Mostly clear 10 - - - -
27/10:00am 28.8 E 13 17 1013.5 - 0.0 - Mostly clear 10 - - - -
27/09:30am 30.3 ESE 10 16 1013.6 - 0.0 - Mostly clear 10 - - - -
27/09:00am 29.4 SE 11 16 1013.6 F 0.4 Distant precip. Partly cloudy 25 - - - -
27/08:30am 29.2 SE 8 13 1013.9 - 0.4 - Mostly clear 10 - - - -
27/08:00am 28.7 SE 10 14 1013.9 - 0.4 - Mostly clear 10 - - - -
27/07:30am 27.0 SE 7 10 1013.9 - 0.4 - Mostly clear 10 - - - -
27/07:00am 26.0 SE 7 10 1013.8 - 0.4 - Mostly clear 10 - - - -
27/06:30am 24.9 SSE 6 8 1013.6 - 0.4 - Mostly clear 10 - - - -
27/06:00am 24.6 SSE 8 10 1012.9 R 0.4 Distant precip. Mostly cloudy 25 - - - -
27/05:30am 24.2 SE 7 9 1012.9 - 0.4 - - 10 - - - -
27/05:00am 24.5 SE 7 9 1012.6 - 0.4 - - 10 - - - -
27/04:30am 24.5 SE 8 9 1012.4 - 0.4 - - 10 - - - -
27/04:00am 24.5 SE 7 9 1012.0 - 0.4 - - 10 - - - -
27/03:30am 24.9 SE 6 7 1011.7 - 0.4 - Partly cloudy 10 - - - -
27/03:00am 25.0 SSE 7 9 1011.5 - 0.4 - Partly cloudy 10 - - - -
27/02:30am 25.4 SE 7 10 1011.5 - 0.4 - Partly cloudy 10 - - - -
27/02:00am 25.4 ESE 8 10 1011.6 - 0.4 - Partly cloudy 10 - - - -
27/01:30am 25.5 ESE 8 11 1011.7 - 0.4 - Partly cloudy 10 - - - -
27/01:00am 25.8 ESE 7 9 1012.0 - 0.4 - Partly cloudy 10 - - - -
27/12:30am 26.1 E 9 13 1012.2 - 0.4 - Partly cloudy 10 - - - -
27/12:00am 26.2 E 8 11 1012.3 - 0.4 - Mostly clear 10 - - - -
 
Date/Time
EST
Temp

°C
Wind Pressure Rain
since 9am
mm
Weather Cloud Vis
km
Sea
Height
m
Swell
Dir
 
Speed
knots
Gust
knots
hPa Trend Height
m
Period
s
Dir
26/11:30pm 26.4 E 9 13 1012.8 - 0.4 - - 10 - - - -
26/11:00pm 26.5 E 9 13 1012.9 - 0.4 - Partly cloudy 10 - - - -
26/10:30pm 26.5 E 8 12 1013.1 - 0.4 - Mostly clear 10 - - - -
26/10:00pm 26.7 E 13 15 1013.0 - 0.4 - Mostly clear 10 - - - -
26/09:30pm 26.7 E 12 16 1012.9 - 0.4 - Mostly clear 10 - - - -
26/09:00pm 26.9 E 11 17 1012.7 F 0.4 Distant precip. Partly cloudy 20 - - - -
26/08:30pm 27.2 E 13 18 1012.5 - 0.4 - Partly cloudy 10 - - - -
26/08:00pm 27.2 E 13 16 1012.3 - 0.4 - Mostly clear 10 - - - -
26/07:30pm 27.0 E 14 17 1012.1 - 0.4 - Partly cloudy 10 - - - -
26/07:00pm 27.4 E 13 16 1012.0 - 0.4 - Partly cloudy 10 - - - -
26/06:30pm 27.5 ENE 12 15 1011.8 - 0.4 - Mostly clear 10 - - - -
26/06:00pm 27.7 ENE 13 17 1011.5 R 0.4 Distant precip. Mostly cloudy 15 - - - -
26/05:30pm 28.1 ENE 16 19 1011.4 - 0.4 - Partly cloudy 10 - - - -
26/05:00pm 28.4 ENE 14 18 1011.3 - 0.4 - Partly cloudy 10 - - - -
26/04:30pm 28.5 ENE 14 17 1010.9 - 0.4 - Mostly clear 10 - - - -
26/04:00pm 28.8 ENE 14 18 1010.7 - 0.4 - Mostly clear 10 - - - -
26/03:30pm 28.5 NE 16 19 1010.8 - 0.4 - Mostly clear 10 - - - -
26/03:00pm 29.9 NE 15 19 1010.8 R 0.4 Distant precip. Cloudy 10 - - - -
26/02:30pm 29.6 ENE 16 20 1011.1 - 0.4 - Mostly clear 10 - - - -
26/02:00pm 29.9 ENE 14 18 1011.1 - 0.4 - Mostly clear 10 - - - -
26/01:30pm 29.9 ENE 15 19 1011.4 - 0.4 - Mostly clear 9 - - - -
26/01:00pm 29.8 ENE 17 20 1011.5 - 0.4 - Mostly clear 9 - - - -
26/12:30pm 30.3 ENE 16 20 1011.9 - 0.4 - Mostly clear 9 - - - -
26/12:00pm 30.8 ENE 17 20 1011.9 R 0.4 Distant precip. Cloudy 9 - - - -
26/11:30am 29.8 ENE 18 23 1012.3 - 0.4 - Mostly clear 9 - - - -
26/11:00am 30.2 ENE 17 21 1012.4 - 0.4 - Mostly clear 9 - - - -
26/10:30am 30.4 ENE 17 22 1012.6 - 0.2 - Mostly clear 8 - - - -
26/10:00am 29.2 ENE 16 20 1012.8 - 0.2 - Partly cloudy 8 - - - -
26/09:27am 28.3 ENE 10 14 1012.7 - 0.2 - Mostly clear 8 - - - -
26/09:00am 27.8 E 12 17 1012.7 F 1.4 Showers Mostly cloudy 8 - - - -
26/08:30am 28.2 ESE 11 15 1012.6 - 1.4 - Partly cloudy 8 - - - -
26/08:00am 27.7 ESE 13 17 1012.6 - 1.4 - Mostly clear 8 - - - -
26/07:30am 27.4 SE 9 12 1012.4 - 1.4 - Mostly clear 8 - - - -
26/07:00am 27.4 SE 8 10 1012.3 - 1.4 - Partly cloudy 7 - - - -
26/06:30am 26.3 SE 8 10 1012.1 - 1.4 - Mostly clear 5 - - - -
26/06:00am 25.7 SE 8 10 1011.6 R 1.4 Distant precip. Mostly cloudy 8 - - - -
26/05:30am 25.5 SSE 7 11 1011.2 - 1.4 - - 8 - - - -
26/05:00am 25.9 SE 8 10 1010.9 - 1.4 - Partly cloudy 8 - - - -
26/04:30am 25.6 SE 8 9 1010.5 - 1.4 - - 9 - - - -
26/04:00am 26.0 SE 7 10 1010.4 - 1.4 - Partly cloudy 9 - - - -
26/03:30am 26.0 E 7 9 1010.4 - 1.4 - Partly cloudy 9 - - - -
26/03:00am 26.0 E 8 12 1010.3 - 1.4 - - 10 - - - -
26/02:30am 26.0 E 10 15 1010.6 - 1.4 - Partly cloudy 10 - - - -
26/02:00am 26.2 E 10 15 1010.8 - 1.4 - Partly cloudy 10 - - - -
26/01:30am 26.2 E 11 14 1010.8 - 1.4 - Partly cloudy 10 - - - -
26/01:12am 26.1 E 12 14 1010.8 - 1.4 - Partly cloudy 10 - - - -
26/01:00am 25.9 SE 6 8 1010.9 - 1.4 - Partly cloudy 10 - - - -
26/12:30am 25.2 SSE 8 10 1011.3 - 1.4 - Partly cloudy 10 - - - -
26/12:22am 25.6 ESE 8 11 1011.5 - 1.4 - Partly cloudy 10 - - - -
26/12:07am 25.6 ENE 7 12 1011.5 - 1.4 - Partly cloudy 6 - - - -
26/12:00am 25.5 E 6 8 1011.6 - 0.2 - Cloudy 10 - - - -
 
Date/Time
EST
Temp

°C
Wind Pressure Rain
since 9am
mm
Weather Cloud Vis
km
Sea
Height
m
Swell
Dir
 
Speed
knots
Gust
knots
hPa Trend Height
m
Period
s
Dir
25/11:30pm 26.2 ENE 12 16 1012.1 - 0.0 - Partly cloudy 10 - - - -
25/11:00pm 27.1 ENE 8 10 1012.3 - 0.0 - Partly cloudy 10 - - - -
25/10:30pm 27.1 E 7 10 1012.5 - 0.0 - Partly cloudy 10 - - - -
25/10:00pm 27.2 ENE 9 12 1012.5 - 0.0 - Partly cloudy 10 - - - -
25/09:30pm 27.2 ENE 8 10 1012.5 - 0.0 - Partly cloudy 10 - - - -
25/09:00pm 27.2 E 8 10 1012.3 - 0.0 - Partly cloudy 10 - - - -
25/08:30pm 27.1 E 9 13 1012.2 - 0.0 - Partly cloudy 10 - - - -
25/08:00pm 26.8 E 11 15 1011.8 - 0.0 - Partly cloudy 10 - - - -
25/07:30pm 26.8 ENE 8 11 1011.6 - 0.0 - Partly cloudy 10 - - - -
25/07:00pm 26.8 ENE 9 14 1011.3 - 0.0 - Partly cloudy 10 - - - -
25/06:30pm 27.0 ENE 9 14 1010.9 - 0.0 - - 10 - - - -
25/06:00pm 27.7 ENE 12 16 1010.5 - 0.0 - - 10 - - - -
25/05:30pm 28.2 ENE 14 16 1010.4 - 0.0 - Mostly clear 10 - - - -
25/05:00pm 28.6 ENE 13 17 1010.2 - 0.0 - Mostly clear 10 - - - -
25/04:30pm 29.0 NE 13 17 1010.2 - 0.0 - Mostly clear 10 - - - -
25/04:00pm 29.0 NE 14 18 1010.2 - 0.0 - Mostly clear 10 - - - -
25/03:30pm 30.0 ENE 15 20 1010.3 - 0.0 - Mostly clear 10 - - - -
25/03:00pm 30.0 ENE 17 22 1010.4 R 0.0 Haze Mostly clear 25 - - - -
25/02:30pm 30.7 ENE 19 23 1010.7 - 0.0 - Mostly clear 10 - - - -
25/02:00pm 30.5 NE 17 20 1011.1 - 0.0 - Mostly clear 10 - - - -
25/01:30pm 30.4 ENE 16 21 1011.4 - 0.0 - Mostly clear 10 - - - -
25/01:00pm 30.5 NE 17 21 1011.6 - 0.0 - Mostly clear 10 - - - -
25/12:30pm 30.6 NE 16 19 1011.8 - 0.0 - Mostly clear 10 - - - -
25/12:00pm 30.7 ENE 14 17 1012.1 - 0.0 - Mostly clear 10 - - - -
25/11:30am 30.1 ENE 14 17 1012.3 - 0.0 - Mostly clear 10 - - - -
25/11:00am 29.1 ENE 13 17 1012.7 - 0.0 - Mostly clear 10 - - - -
25/10:30am 30.1 NE 12 17 1012.9 - 0.0 - Mostly clear 10 - - - -
25/10:00am 29.6 ENE 11 16 1013.1 - 0.0 - Mostly clear 10 - - - -
25/09:30am 29.4 E 13 15 1013.2 - 0.0 - Mostly clear 10 - - - -
25/09:00am 28.7 ENE 11 15 1013.0 F 2.4 Haze Mostly clear 25 - - - -
25/08:30am 28.6 ENE 10 13 1013.1 - 2.4 - Mostly clear 10 - - - -
25/08:00am 28.7 E 10 13 1013.1 - 2.4 - Mostly clear 10 - - - -
25/07:30am 28.1 ENE 9 13 1012.9 - 2.4 - Partly cloudy 10 - - - -
25/07:00am 27.6 E 8 12 1012.7 - 2.4 - Partly cloudy 10 - - - -
25/06:30am 26.5 SSE 5 8 1012.4 - 2.4 Showers Mostly cloudy 10 - - - -
25/06:00am 24.7 N 3 5 1011.9 F 2.4 Distant precip. Partly cloudy 25 - - - -
25/05:30am 25.4 ENE 5 7 1011.9 - 2.4 - - 10 - - - -
25/05:00am 25.2 ENE 7 8 1011.7 - 2.4 - Partly cloudy 10 - - - -
25/04:30am 25.6 E 7 9 1011.5 - 2.4 - Partly cloudy 10 - - - -
25/04:00am 25.7 ENE 6 9 1011.2 - 2.4 - Partly cloudy 10 - - - -
25/03:30am 25.4 NE 9 10 1011.3 - 2.4 - Partly cloudy 10 - - - -
25/03:00am 25.7 ENE 9 12 1011.2 - 2.4 - Mostly clear 10 - - - -
25/02:30am 25.7 ENE 9 14 1011.5 - 2.4 - Partly cloudy 10 - - - -
25/02:00am 25.8 ENE 9 14 1011.7 - 2.4 - Partly cloudy 10 - - - -
25/01:30am 25.6 ENE 10 12 1012.0 - 2.4 - - 10 - - - -
25/01:00am 25.8 ENE 9 13 1012.4 - 2.4 - Partly cloudy 10 - - - -
25/12:30am 25.9 ENE 10 15 1012.9 - 2.4 - Partly cloudy 10 - - - -
25/12:00am 26.0 ENE 9 12 1013.3 - 2.4 - Mostly clear 10 - - - -
 
Date/Time
EST
Temp

°C
Wind Pressure Rain
since 9am
mm
Weather Cloud Vis
km
Sea
Height
m
Swell
Dir
 
Speed
knots
Gust
knots
hPa Trend Height
m
Period
s
Dir
24/11:35pm 25.9 ENE 11 14 1013.5 - 2.4 - Partly cloudy 10 - - - -
24/11:30pm 25.7 NNE 5 14 1013.5 - 2.4 - Partly cloudy 10 - - - -
24/11:15pm 25.1 NE 11 24 1013.7 - 2.0 - Partly cloudy 4 - - - -
24/11:00pm 27.0 NE 9 13 1013.5 - 0.0 - Partly cloudy 10 - - - -
24/10:30pm 26.8 NE 11 14 1013.5 - 0.0 - Partly cloudy 10 - - - -

Other Formats:

Comma delimited format used in spreadsheet applications
http://www.bom.gov.au/fwo/IDQ60701/IDQ60701.94294.axf

JavaScript Object Notation format (JSON) in row-major order
http://www.bom.gov.au/fwo/IDQ60701/IDQ60701.94294.json